createdAt,value
2023-01-11T00:01:41.672Z,3.22
2023-01-11T00:03:43.509Z,2.60
2023-01-11T00:05:48.960Z,4.03
2023-01-11T00:07:51.099Z,3.63
2023-01-11T00:09:52.636Z,3.63
2023-01-11T00:11:55.067Z,2.80
2023-01-11T00:13:56.799Z,3.42
2023-01-11T00:16:05.680Z,3.88
2023-01-11T00:18:09.251Z,1.95
2023-01-11T00:20:11.190Z,3.92
2023-01-11T00:22:13.880Z,1.98
2023-01-11T00:24:16.422Z,2.22
2023-01-11T00:26:19.436Z,2.38
2023-01-11T00:30:23.836Z,11.57
2023-01-11T00:32:27.131Z,1.88
2023-01-11T00:34:28.606Z,2.70
2023-01-11T00:36:30.372Z,2.22
2023-01-11T00:38:44.320Z,1.63
2023-01-11T00:40:46.907Z,4.20
2023-01-11T00:43:07.011Z,2.92
2023-01-11T00:45:27.520Z,2.50
2023-01-11T00:47:50.680Z,3.58
2023-01-11T00:49:53.573Z,3.63
2023-01-11T00:51:55.208Z,1.35
2023-01-11T00:53:57.155Z,1.45
2023-01-11T00:55:58.720Z,1.17
2023-01-11T00:58:01.393Z,3.05
2023-01-11T01:00:09.225Z,2.30
2023-01-11T01:04:13.381Z,1.15
2023-01-11T01:06:14.955Z,2.40
2023-01-11T01:08:21.510Z,2.75
2023-01-11T01:10:23.078Z,1.98
2023-01-11T01:12:43.228Z,3.85
2023-01-11T01:14:47.023Z,1.55
2023-01-11T01:16:49.911Z,3.72
2023-01-11T01:18:53.391Z,0.95
2023-01-11T01:20:54.950Z,1.52
2023-01-11T01:22:57.924Z,2.25
2023-01-11T01:24:59.476Z,0.93
2023-01-11T01:27:04.088Z,1.27
2023-01-11T01:29:07.245Z,2.63
2023-01-11T01:31:08.982Z,1.63
2023-01-11T01:33:10.737Z,3.78
2023-01-11T01:35:12.248Z,1.63
2023-01-11T01:37:15.975Z,2.38
2023-01-11T01:39:22.643Z,1.50
2023-01-11T01:41:24.184Z,1.75
2023-01-11T01:44:06.347Z,3.10
2023-01-11T01:46:07.865Z,0.60
2023-01-11T01:48:12.795Z,1.35
2023-01-11T01:50:25.570Z,1.80
2023-01-11T01:52:29.220Z,2.63
2023-01-11T01:54:35.802Z,2.85
2023-01-11T01:56:46.373Z,1.10
2023-01-11T01:58:52.946Z,1.88
2023-01-11T02:00:54.672Z,2.55
2023-01-11T02:02:59.179Z,2.63
2023-01-11T02:05:01.646Z,2.13
2023-01-11T02:07:10.751Z,1.52
2023-01-11T02:09:25.454Z,1.75
2023-01-11T02:11:30.619Z,2.15
2023-01-11T02:13:45.850Z,2.72
2023-01-11T02:16:08.030Z,1.67
2023-01-11T02:18:12.740Z,3.05
2023-01-11T02:20:27.948Z,1.75
2023-01-11T02:22:41.436Z,2.20
2023-01-11T02:25:01.684Z,1.70
2023-01-11T02:27:18.264Z,1.70
2023-01-11T02:29:43.129Z,0.85
2023-01-11T02:32:00.219Z,2.25
2023-01-11T02:34:23.704Z,1.20
2023-01-11T02:36:48.350Z,1.00
2023-01-11T02:39:15.288Z,1.58
2023-01-11T02:41:52.576Z,1.30
2023-01-11T02:44:29.417Z,1.85
2023-01-11T02:46:49.363Z,1.58
2023-01-11T02:49:04.273Z,1.52
2023-01-11T02:53:26.288Z,1.55
2023-01-11T02:57:35.543Z,1.63
2023-01-11T02:59:39.165Z,0.77
2023-01-11T03:01:48.831Z,1.42
2023-01-11T03:03:53.730Z,2.78
2023-01-11T03:06:00.675Z,2.00
2023-01-11T03:08:14.971Z,1.85
2023-01-11T03:11:01.451Z,1.70
2023-01-11T03:13:42.308Z,2.47
2023-01-11T03:15:46.909Z,1.92
2023-01-11T03:18:15.753Z,1.85
2023-01-11T03:20:40.993Z,1.90
2023-01-11T03:23:00.470Z,1.35
2023-01-11T03:25:30.920Z,0.73
2023-01-11T03:27:59.747Z,2.40
2023-01-11T03:30:28.191Z,1.75
2023-01-11T03:32:41.512Z,0.75
2023-01-11T03:35:08.579Z,0.80
2023-01-11T03:37:35.839Z,1.38
2023-01-11T03:39:52.106Z,0.93
2023-01-11T03:41:58.633Z,1.30
2023-01-11T03:44:03.127Z,1.70
2023-01-11T03:46:12.345Z,1.83
2023-01-11T03:48:22.419Z,0.70
2023-01-11T03:50:27.024Z,1.35
2023-01-11T03:52:35.223Z,1.67
2023-01-11T03:54:37.281Z,1.00
2023-01-11T03:57:03.178Z,0.80
2023-01-11T04:01:07.917Z,1.52
2023-01-11T04:03:12.453Z,1.45
2023-01-11T04:05:15.662Z,2.33
2023-01-11T04:07:18.828Z,4.22
2023-01-11T04:09:21.448Z,2.38
2023-01-11T04:11:23.024Z,1.33
2023-01-11T04:13:24.620Z,3.22
2023-01-11T04:15:27.223Z,1.90
2023-01-11T04:17:29.889Z,2.60
2023-01-11T04:19:31.393Z,2.20
2023-01-11T04:21:32.936Z,2.03
2023-01-11T04:23:34.569Z,0.93
2023-01-11T04:25:36.319Z,2.38
2023-01-11T04:27:38.054Z,1.65
2023-01-11T04:29:40.659Z,1.88
2023-01-11T04:31:43.484Z,2.03
2023-01-11T04:33:46.123Z,2.40
2023-01-11T04:35:49.729Z,2.13
2023-01-11T04:37:57.869Z,2.40
2023-01-11T04:39:59.424Z,1.00
2023-01-11T04:42:19.123Z,1.20
2023-01-11T04:44:22.308Z,1.23
2023-01-11T04:46:25.067Z,1.08
2023-01-11T04:48:27.985Z,1.15
2023-01-11T04:52:33.614Z,2.85
2023-01-11T04:54:36.135Z,2.17
2023-01-11T04:56:38.685Z,2.17
2023-01-11T04:58:40.488Z,3.17
2023-01-11T05:00:43.496Z,2.00
2023-01-11T05:02:45.472Z,1.50
2023-01-11T05:04:55.971Z,0.70
2023-01-11T05:07:02.667Z,0.85
2023-01-11T05:09:05.474Z,0.70
2023-01-11T05:11:09.973Z,1.10
2023-01-11T05:15:14.483Z,1.33
2023-01-11T05:17:16.992Z,0.93
2023-01-11T05:19:19.212Z,1.02
2023-01-11T05:21:24.826Z,0.68
2023-01-11T05:23:26.388Z,2.42
2023-01-11T05:25:28.031Z,0.60
2023-01-11T05:27:30.085Z,0.57
2023-01-11T05:29:31.650Z,0.85
2023-01-11T05:31:35.751Z,0.93
2023-01-11T05:33:37.444Z,0.60
2023-01-11T05:35:38.997Z,1.38
2023-01-11T05:37:52.654Z,1.38
2023-01-11T05:39:56.675Z,1.23
2023-01-11T05:42:07.271Z,0.98
2023-01-11T05:44:30.361Z,2.30
2023-01-11T05:46:33.485Z,0.98
2023-01-11T05:48:36.098Z,1.33
2023-01-11T05:50:37.773Z,2.92
2023-01-11T05:52:40.420Z,1.75
2023-01-11T05:55:00.375Z,2.28
2023-01-11T05:57:10.695Z,1.50
2023-01-11T05:59:12.724Z,1.27
2023-01-11T06:01:14.894Z,1.38
2023-01-11T06:03:17.121Z,3.83
2023-01-11T06:05:19.967Z,1.90
2023-01-11T06:07:25.369Z,0.98
2023-01-11T06:09:35.995Z,1.58
2023-01-11T06:11:38.597Z,0.90
2023-01-11T06:13:41.928Z,0.85
2023-01-11T06:15:43.591Z,3.38
2023-01-11T06:17:45.177Z,1.52
2023-01-11T06:19:47.425Z,0.68
2023-01-11T06:21:48.963Z,1.33
2023-01-11T06:23:51.712Z,0.68
2023-01-11T06:25:54.829Z,1.08
2023-01-11T06:27:58.476Z,1.77
2023-01-11T06:30:01.042Z,0.70
2023-01-11T06:32:03.821Z,0.85
2023-01-11T06:34:05.541Z,1.00
2023-01-11T06:36:12.358Z,1.33
2023-01-11T06:38:15.719Z,1.27
2023-01-11T06:40:17.494Z,0.68
2023-01-11T06:42:19.078Z,1.02
2023-01-11T06:44:21.687Z,0.63
2023-01-11T06:46:23.536Z,0.95
2023-01-11T06:48:26.246Z,1.20
2023-01-11T06:52:29.315Z,1.33
2023-01-11T06:54:30.849Z,0.60
2023-01-11T06:56:35.172Z,0.40
2023-01-11T06:58:37.775Z,0.40
2023-01-11T07:00:39.703Z,0.30
2023-01-11T07:02:41.394Z,0.20
2023-01-11T07:04:43.170Z,0.30
2023-01-11T07:06:44.780Z,0.20
2023-01-11T07:08:47.384Z,0.57
2023-01-11T07:10:49.077Z,0.32
2023-01-11T07:12:53.402Z,0.22
2023-01-11T07:14:56.504Z,0.40
2023-01-11T07:16:58.040Z,0.30
2023-01-11T07:18:59.767Z,0.10
2023-01-11T07:21:02.751Z,0.43
2023-01-11T07:23:04.512Z,0.20
2023-01-11T07:25:06.642Z,0.10
2023-01-11T07:27:09.453Z,0.55
2023-01-11T07:29:11.202Z,0.30
2023-01-11T07:31:12.810Z,0.10
2023-01-11T07:33:16.415Z,0.20
2023-01-11T07:35:18.229Z,0.20
2023-01-11T07:37:28.292Z,0.10
2023-01-11T07:39:43.108Z,0.10
2023-01-11T07:42:03.585Z,0.20
2023-01-11T07:44:05.190Z,0.30
2023-01-11T07:46:06.900Z,0.35
2023-01-11T07:48:10.539Z,0.40
2023-01-11T07:50:12.130Z,0.20
2023-01-11T07:52:13.674Z,0.20
2023-01-11T07:54:15.184Z,0.28
2023-01-11T07:56:16.855Z,0.08
2023-01-11T07:58:18.385Z,0.10
2023-01-11T08:00:40.537Z,0.00
2023-01-11T08:02:45.029Z,0.10
2023-01-11T08:04:46.742Z,0.10
2023-01-11T08:06:48.308Z,0.55
2023-01-11T08:08:50.332Z,0.28
2023-01-11T08:11:11.809Z,0.25
2023-01-11T08:13:33.082Z,0.25
2023-01-11T08:15:36.576Z,0.10
2023-01-11T08:17:38.511Z,0.10
2023-01-11T08:19:40.707Z,0.20
2023-01-11T08:21:44.350Z,0.55
2023-01-11T08:23:53.682Z,0.20
2023-01-11T08:26:17.954Z,0.38
2023-01-11T08:28:19.699Z,0.00
2023-01-11T08:30:21.571Z,0.93
2023-01-11T08:32:23.033Z,0.10
2023-01-11T08:34:25.509Z,0.10
2023-01-11T08:38:30.686Z,0.10
2023-01-11T08:40:32.653Z,0.10
2023-01-11T08:42:34.205Z,0.00
2023-01-11T08:44:35.827Z,0.10
2023-01-11T08:46:38.000Z,0.00
2023-01-11T08:48:39.809Z,0.00
2023-01-11T08:50:42.019Z,0.20
2023-01-11T08:52:43.604Z,0.17
2023-01-11T08:54:45.578Z,0.08
2023-01-11T08:56:47.747Z,0.00
2023-01-11T08:58:49.404Z,0.10
2023-01-11T09:00:51.879Z,0.20
2023-01-11T09:02:53.611Z,0.10
2023-01-11T09:04:55.211Z,0.17
2023-01-11T09:06:56.806Z,0.00
2023-01-11T09:08:58.545Z,0.75
2023-01-11T09:11:00.642Z,0.03
2023-01-11T09:13:02.286Z,0.00
2023-01-11T09:15:05.749Z,0.10
2023-01-11T09:17:17.811Z,0.00
2023-01-11T09:19:19.793Z,0.00
2023-01-11T09:21:22.065Z,0.00
2023-01-11T09:23:38.986Z,0.00
2023-01-11T09:25:40.539Z,0.08
2023-01-11T09:27:57.179Z,0.17
2023-01-11T09:29:58.792Z,0.08
2023-01-11T09:32:00.380Z,0.20
2023-01-11T09:37:30.290Z,0.28
2023-01-11T09:39:33.174Z,0.10
2023-01-11T09:42:08.979Z,0.22
2023-01-11T09:44:19.084Z,0.20
2023-01-11T09:46:20.790Z,0.10
2023-01-11T09:48:33.283Z,0.17
2023-01-11T09:50:41.741Z,0.32
2023-01-11T09:54:47.430Z,0.10
2023-01-11T09:57:23.915Z,0.17
2023-01-11T09:59:37.975Z,0.17
2023-01-11T10:01:50.215Z,0.20
2023-01-11T10:04:09.925Z,0.10
2023-01-11T10:06:24.460Z,0.20
2023-01-11T10:18:25.908Z,0.13
2023-01-11T10:18:39.852Z,0.30
2023-01-11T10:19:34.961Z,0.17
2023-01-11T10:21:46.396Z,0.30
2023-01-11T10:24:05.399Z,0.20
2023-01-11T10:26:23.074Z,0.20
2023-01-11T10:28:33.050Z,0.20
2023-01-11T10:31:11.225Z,0.20
2023-01-11T10:33:34.531Z,0.20
2023-01-11T10:36:03.218Z,0.20
2023-01-11T10:38:30.963Z,0.20
2023-01-11T10:41:01.529Z,0.20
2023-01-11T10:43:16.810Z,0.20
2023-01-11T10:45:25.277Z,0.17
2023-01-11T10:47:37.370Z,0.10
2023-01-11T10:49:48.152Z,0.10
2023-01-11T10:51:49.906Z,0.10
2023-01-11T10:53:59.929Z,0.10
2023-01-11T10:56:13.959Z,0.10
2023-01-11T10:58:15.732Z,0.20
2023-01-11T11:00:28.549Z,0.20
2023-01-11T11:02:49.069Z,0.20
2023-01-11T11:05:08.657Z,0.20
2023-01-11T11:07:12.557Z,0.13
2023-01-11T11:09:22.919Z,0.10
2023-01-11T11:11:40.993Z,0.20
2023-01-11T11:13:55.460Z,0.30
2023-01-11T11:16:23.299Z,0.70
2023-01-11T11:18:25.407Z,0.20
2023-01-11T11:20:32.222Z,0.20
2023-01-11T11:22:33.761Z,0.20
2023-01-11T11:24:47.965Z,0.20
2023-01-11T11:26:57.478Z,0.20
2023-01-11T11:29:11.170Z,0.40
2023-01-11T11:31:15.089Z,0.30
2023-01-11T11:33:28.905Z,0.30
2023-01-11T11:35:37.098Z,0.40
2023-01-11T11:37:45.604Z,0.30
2023-01-11T11:41:53.597Z,0.30
2023-01-11T11:44:16.291Z,0.40
2023-01-11T11:46:26.378Z,0.40
2023-01-11T11:48:31.470Z,0.40
2023-01-11T11:50:48.626Z,0.40
2023-01-11T11:53:07.970Z,0.40
2023-01-11T11:55:13.455Z,0.50
2023-01-11T11:57:38.896Z,0.35
2023-01-11T11:59:45.759Z,0.35
2023-01-11T12:01:56.138Z,1.10
2023-01-11T12:04:02.582Z,0.40
2023-01-11T12:06:07.355Z,0.35
2023-01-11T12:08:14.456Z,0.30
2023-01-11T12:10:19.923Z,0.20
2023-01-11T12:12:26.428Z,0.30
2023-01-11T12:14:34.517Z,0.50
2023-01-11T12:16:40.385Z,0.30
2023-01-11T12:18:43.300Z,0.70
2023-01-11T12:20:47.267Z,1.10
2023-01-11T12:22:50.072Z,0.40
2023-01-11T12:25:15.035Z,0.75
2023-01-11T12:27:31.807Z,0.47
2023-01-11T12:30:04.992Z,0.88
2023-01-11T12:32:20.516Z,0.35
2023-01-11T12:34:41.535Z,0.40
2023-01-11T12:37:00.568Z,0.52
2023-01-11T12:39:14.581Z,1.13
2023-01-11T12:41:50.359Z,0.30
2023-01-11T12:44:42.380Z,0.47
2023-01-11T12:47:11.744Z,1.25
2023-01-11T12:49:43.934Z,0.55
2023-01-11T12:52:39.273Z,1.05
2023-01-11T12:55:01.730Z,0.45
2023-01-11T12:57:23.408Z,0.40
2023-01-11T12:59:48.671Z,0.57
2023-01-11T13:02:18.846Z,0.55
2023-01-11T13:04:50.961Z,0.50
2023-01-11T13:07:24.758Z,0.50
2023-01-11T13:09:51.942Z,1.27
2023-01-11T13:12:21.709Z,0.75
2023-01-11T13:14:26.009Z,0.43
2023-01-11T13:16:37.632Z,0.30
2023-01-11T13:18:42.917Z,0.73
2023-01-11T13:21:01.799Z,0.60
2023-01-11T13:23:21.716Z,1.38
2023-01-11T13:25:32.209Z,0.88
2023-01-11T13:27:34.014Z,0.60
2023-01-11T13:29:40.816Z,0.60
2023-01-11T13:31:45.701Z,0.50
2023-01-11T13:33:57.525Z,0.77
2023-01-11T13:36:22.813Z,0.73
2023-01-11T13:38:38.912Z,0.60
2023-01-11T13:40:50.200Z,0.93
2023-01-11T13:43:19.850Z,1.30
2023-01-11T13:45:28.960Z,0.65
2023-01-11T13:47:36.930Z,0.60
2023-01-11T13:49:59.215Z,0.65
2023-01-11T13:52:12.256Z,1.10
2023-01-11T13:54:32.244Z,1.02
2023-01-11T13:56:39.599Z,1.90
2023-01-11T13:59:21.059Z,1.52
2023-01-11T14:01:54.475Z,1.10
2023-01-11T14:04:02.461Z,2.03
2023-01-11T14:06:07.274Z,1.13
2023-01-11T14:08:36.310Z,1.10
2023-01-11T14:11:19.713Z,1.35
2023-01-11T14:14:09.376Z,1.20
2023-01-11T14:16:28.875Z,1.25
2023-01-11T14:18:41.888Z,1.10
2023-01-11T14:21:21.438Z,1.52
2023-01-11T14:23:50.574Z,1.80
2023-01-11T14:26:30.066Z,1.20
2023-01-11T14:28:51.489Z,1.35
2023-01-11T14:31:11.703Z,0.80
2023-01-11T14:33:38.707Z,0.88
2023-01-11T14:35:42.838Z,1.90
2023-01-11T14:38:09.167Z,1.30
2023-01-11T14:40:19.456Z,1.42
2023-01-11T14:42:58.722Z,0.70
2023-01-11T14:45:16.840Z,0.93
2023-01-11T14:47:36.940Z,2.17
2023-01-11T14:49:51.774Z,1.25
2023-01-11T14:52:00.639Z,1.38
2023-01-11T14:54:12.549Z,0.70
2023-01-11T14:56:38.943Z,0.63
2023-01-11T14:59:04.911Z,2.20
2023-01-11T15:01:11.144Z,2.45
2023-01-11T15:03:13.120Z,0.73
2023-01-11T15:05:33.237Z,1.05
2023-01-11T15:07:37.580Z,1.65
2023-01-11T15:09:46.009Z,1.15
2023-01-11T15:13:57.133Z,0.82
2023-01-11T15:16:41.166Z,1.08
2023-01-11T15:18:45.608Z,1.45
2023-01-11T15:20:52.721Z,0.50
2023-01-11T15:23:02.457Z,2.58
2023-01-11T15:25:08.135Z,1.17
2023-01-11T15:27:36.529Z,1.10
2023-01-11T15:29:46.172Z,0.60
2023-01-11T15:31:49.610Z,1.40
2023-01-11T15:33:54.329Z,3.03
2023-01-11T15:35:56.119Z,0.95
2023-01-11T15:38:21.780Z,0.68
2023-01-11T15:40:31.254Z,2.15
2023-01-11T15:43:10.358Z,1.80
2023-01-11T15:46:05.258Z,2.60
2023-01-11T15:48:28.895Z,2.05
2023-01-11T15:51:03.064Z,2.42
2023-01-11T15:53:23.979Z,3.38
2023-01-11T15:55:48.008Z,1.00
2023-01-11T15:58:16.376Z,3.20
2023-01-11T16:00:45.157Z,1.65
2023-01-11T16:03:00.958Z,2.17
2023-01-11T16:05:14.496Z,1.98
2023-01-11T16:07:42.303Z,4.18
2023-01-11T16:10:02.467Z,3.47
2023-01-11T16:13:01.847Z,2.80
2023-01-11T16:15:12.579Z,1.80
2023-01-11T16:17:19.045Z,2.55
2023-01-11T16:19:22.604Z,2.33
2023-01-11T16:21:33.543Z,2.92
2023-01-11T16:23:35.732Z,4.28
2023-01-11T16:25:40.813Z,1.88
2023-01-11T16:27:43.166Z,3.50
2023-01-11T16:29:50.017Z,4.35
2023-01-11T16:31:57.889Z,2.20
2023-01-11T16:34:06.612Z,2.72
2023-01-11T16:38:19.634Z,3.45
2023-01-11T16:40:27.104Z,1.33
2023-01-11T16:42:33.713Z,5.25
2023-01-11T16:44:41.690Z,3.95
2023-01-11T16:47:03.940Z,1.92
2023-01-11T16:49:16.081Z,3.40
2023-01-11T16:51:21.436Z,3.55
2023-01-11T16:53:25.888Z,2.92
2023-01-11T16:55:34.070Z,4.47
2023-01-11T16:57:42.464Z,3.67
2023-01-11T17:00:01.139Z,3.00
2023-01-11T17:02:23.454Z,2.70
2023-01-11T17:04:29.962Z,4.25
2023-01-11T17:06:34.561Z,7.07
2023-01-11T17:08:42.521Z,4.82
2023-01-11T17:10:44.144Z,4.30
2023-01-11T17:12:49.680Z,2.05
2023-01-11T17:15:03.586Z,4.00
2023-01-11T17:17:08.721Z,1.85
2023-01-11T17:19:20.072Z,3.72
2023-01-11T17:21:26.932Z,4.15
2023-01-11T17:23:28.756Z,3.13
2023-01-11T17:25:43.837Z,5.47
2023-01-11T17:27:53.300Z,3.92
2023-01-11T17:29:57.123Z,5.45
2023-01-11T17:32:01.046Z,2.47
2023-01-11T17:34:05.565Z,10.27
2023-01-11T17:36:08.154Z,4.78
2023-01-11T17:38:18.068Z,3.33
2023-01-11T17:40:38.730Z,5.43
2023-01-11T17:42:59.068Z,2.38
2023-01-11T17:45:13.282Z,2.90
2023-01-11T17:47:15.593Z,4.15
2023-01-11T17:49:24.311Z,4.20
2023-01-11T17:53:34.480Z,2.83
2023-01-11T17:55:36.456Z,3.95
2023-01-11T17:57:37.944Z,3.63
2023-01-11T17:59:39.847Z,6.25
2023-01-11T18:01:47.895Z,4.15
2023-01-11T18:03:56.760Z,7.13
2023-01-11T18:08:19.683Z,2.65
2023-01-11T18:10:24.522Z,6.03
2023-01-11T18:12:30.602Z,3.03
2023-01-11T18:14:40.687Z,4.10
2023-01-11T18:17:02.821Z,5.88
2023-01-11T18:19:24.208Z,3.60
2023-01-11T18:21:25.864Z,5.55
2023-01-11T18:23:27.673Z,3.58
2023-01-11T18:25:31.954Z,5.63
2023-01-11T18:27:34.802Z,5.85
2023-01-11T18:29:36.751Z,2.15
2023-01-11T18:31:38.272Z,2.65
2023-01-11T18:33:41.672Z,4.03
2023-01-11T18:35:44.879Z,7.30
2023-01-11T18:37:47.492Z,3.30
2023-01-11T18:39:52.967Z,4.57
2023-01-11T18:44:11.837Z,2.28
2023-01-11T18:46:13.446Z,4.38
2023-01-11T18:48:15.645Z,4.32
2023-01-11T18:50:19.521Z,2.63
2023-01-11T18:52:24.706Z,5.07
2023-01-11T19:10:39.575Z,3.55
2023-01-11T19:12:42.026Z,4.63
2023-01-11T19:14:43.964Z,2.70
2023-01-11T19:16:45.622Z,5.15
2023-01-11T19:18:47.319Z,2.65
2023-01-11T19:20:48.952Z,4.70
2023-01-11T19:22:53.096Z,2.25
2023-01-11T19:24:55.014Z,3.03
2023-01-11T19:26:56.700Z,3.50
2023-01-11T19:28:58.377Z,4.07
2023-01-11T19:31:00.077Z,4.78
2023-01-11T19:33:01.691Z,2.97
2023-01-11T19:35:03.750Z,3.33
2023-01-11T19:37:05.340Z,2.78
2023-01-11T19:39:08.431Z,5.25
2023-01-11T19:41:10.806Z,4.13
2023-01-11T19:43:12.779Z,4.70
2023-01-11T19:45:14.344Z,2.72
2023-01-11T19:47:16.337Z,4.95
2023-01-11T19:49:18.341Z,7.07
2023-01-11T19:51:19.952Z,2.75
2023-01-11T19:53:21.593Z,2.72
2023-01-11T19:55:24.491Z,3.35
2023-01-11T19:57:27.578Z,2.78
2023-01-11T20:01:30.499Z,2.55
2023-01-11T20:03:32.028Z,4.53
2023-01-11T20:05:33.662Z,3.00
2023-01-11T20:07:35.383Z,3.60
2023-01-11T20:09:37.845Z,3.40
2023-01-11T20:11:39.405Z,6.30
2023-01-11T20:13:42.326Z,6.95
2023-01-11T20:15:43.867Z,5.85
2023-01-11T20:17:45.550Z,3.88
2023-01-11T20:19:54.615Z,2.90
2023-01-11T20:21:56.498Z,5.25
2023-01-11T20:23:58.425Z,3.40
2023-01-11T20:26:01.897Z,5.38
2023-01-11T20:28:03.676Z,8.05
2023-01-11T20:30:08.803Z,2.55
2023-01-11T20:32:35.032Z,6.50
2023-01-11T20:34:32.214Z,5.47
2023-01-11T20:36:33.847Z,5.82
2023-01-11T20:38:35.467Z,3.80
2023-01-11T20:40:39.925Z,5.72
2023-01-11T20:42:42.170Z,5.13
2023-01-11T20:44:44.113Z,5.22
2023-01-11T20:46:48.078Z,4.45
2023-01-11T20:48:50.104Z,4.90
2023-01-11T20:50:51.705Z,4.15
2023-01-11T20:52:53.559Z,2.83
2023-01-11T20:54:55.083Z,2.72
2023-01-11T20:57:01.891Z,3.20
2023-01-11T20:59:03.976Z,2.47
2023-01-11T21:01:08.343Z,5.10
2023-01-11T21:03:10.005Z,4.07
2023-01-11T21:05:11.553Z,4.90
2023-01-11T21:07:13.207Z,4.85
2023-01-11T21:09:16.839Z,10.98
2023-01-11T21:11:18.439Z,4.50
2023-01-11T21:13:19.912Z,3.95
2023-01-11T21:15:21.657Z,4.80
2023-01-11T21:17:23.145Z,3.03
2023-01-11T21:19:25.598Z,4.60
2023-01-11T21:21:29.366Z,3.33
2023-01-11T21:23:31.581Z,5.80
2023-01-11T21:25:33.945Z,8.13
2023-01-11T21:27:37.020Z,7.70
2023-01-11T21:29:38.529Z,5.50
2023-01-11T21:31:40.581Z,3.65
2023-01-11T21:33:42.235Z,10.80
2023-01-11T21:38:41.987Z,1.92
2023-01-11T21:44:11.890Z,4.40
2023-01-11T21:48:58.708Z,4.40
2023-01-11T21:54:53.818Z,7.28
2023-01-11T21:56:55.466Z,3.58
2023-01-11T21:58:57.449Z,3.35
2023-01-11T22:01:00.281Z,3.58
2023-01-11T22:03:02.240Z,4.15
2023-01-11T22:05:04.115Z,4.47
2023-01-11T22:07:05.795Z,5.80
2023-01-11T22:09:11.674Z,3.70
2023-01-11T22:11:17.923Z,6.93
2023-01-11T22:13:19.493Z,3.97
2023-01-11T22:15:21.025Z,5.13
2023-01-11T22:17:22.529Z,6.03
2023-01-11T22:19:24.412Z,6.03
2023-01-11T22:21:27.010Z,8.05
2023-01-11T22:23:28.716Z,5.65
2023-01-11T22:25:30.281Z,5.78
2023-01-11T22:27:31.893Z,6.03
2023-01-11T22:35:56.757Z,4.38
2023-01-11T22:37:58.534Z,3.30
2023-01-11T22:40:01.731Z,6.28
2023-01-11T22:42:04.854Z,4.18
2023-01-11T22:44:10.278Z,5.45
2023-01-11T22:46:20.863Z,6.30
2023-01-11T22:48:22.567Z,4.07
2023-01-11T22:50:24.153Z,4.82
2023-01-11T22:52:26.107Z,7.85
2023-01-11T22:54:27.838Z,5.18
2023-01-11T22:56:29.584Z,4.68
2023-01-11T22:58:31.396Z,6.85
2023-01-11T23:00:33.067Z,4.25
2023-01-11T23:02:34.964Z,4.28
2023-01-11T23:08:11.803Z,2.83
2023-01-11T23:14:02.138Z,5.65
2023-01-11T23:16:04.375Z,4.97
2023-01-11T23:18:06.127Z,4.40
2023-01-11T23:20:08.539Z,8.93
2023-01-11T23:22:10.459Z,6.07
2023-01-11T23:24:16.364Z,4.47
2023-01-11T23:26:18.181Z,4.97
2023-01-11T23:28:19.796Z,4.10
2023-01-11T23:30:21.553Z,4.53
2023-01-11T23:32:23.274Z,5.82
2023-01-11T23:34:24.984Z,5.57
2023-01-11T23:36:31.803Z,4.80
2023-01-11T23:38:33.455Z,5.85
2023-01-11T23:40:55.379Z,4.38
2023-01-11T23:42:59.343Z,6.32
2023-01-11T23:45:01.071Z,3.53
2023-01-11T23:47:21.088Z,5.85
2023-01-11T23:49:24.677Z,5.88
2023-01-11T23:51:26.333Z,3.72
2023-01-11T23:53:28.625Z,6.07
2023-01-11T23:55:30.707Z,6.80
2023-01-11T23:57:32.704Z,4.07
2023-01-11T23:59:34.350Z,4.35
